sensor_id;sensor_type;location;lat;lon;timestamp;P1;durP1;ratioP1;P2;durP2;ratioP2
60582;SDS011;46415;47.536;19.066;2023-05-27T00:02:58;6.85;;;5.97;;
60582;SDS011;46415;47.536;19.066;2023-05-27T00:06:04;6.85;;;5.62;;
60582;SDS011;46415;47.536;19.066;2023-05-27T00:09:07;7.20;;;6.25;;
60582;SDS011;46415;47.536;19.066;2023-05-27T00:12:10;7.18;;;6.22;;
60582;SDS011;46415;47.536;19.066;2023-05-27T00:15:13;6.95;;;6.32;;
60582;SDS011;46415;47.536;19.066;2023-05-27T00:18:16;6.95;;;6.25;;
60582;SDS011;46415;47.536;19.066;2023-05-27T00:21:19;6.85;;;6.15;;
60582;SDS011;46415;47.536;19.066;2023-05-27T00:24:22;8.98;;;6.43;;
60582;SDS011;46415;47.536;19.066;2023-05-27T00:27:24;8.63;;;7.15;;
60582;SDS011;46415;47.536;19.066;2023-05-27T00:30:27;9.02;;;6.43;;
60582;SDS011;46415;47.536;19.066;2023-05-27T00:33:30;7.30;;;6.60;;
60582;SDS011;46415;47.536;19.066;2023-05-27T00:36:33;9.98;;;6.82;;
60582;SDS011;46415;47.536;19.066;2023-05-27T00:39:35;7.87;;;6.82;;
60582;SDS011;46415;47.536;19.066;2023-05-27T00:42:38;7.60;;;6.80;;
60582;SDS011;46415;47.536;19.066;2023-05-27T00:45:41;8.48;;;6.68;;
60582;SDS011;46415;47.536;19.066;2023-05-27T00:48:45;7.78;;;6.43;;
60582;SDS011;46415;47.536;19.066;2023-05-27T00:51:49;9.23;;;7.37;;
60582;SDS011;46415;47.536;19.066;2023-05-27T00:54:52;9.43;;;7.62;;
60582;SDS011;46415;47.536;19.066;2023-05-27T00:57:55;8.05;;;7.25;;
60582;SDS011;46415;47.536;19.066;2023-05-27T01:00:59;7.50;;;6.80;;
60582;SDS011;46415;47.536;19.066;2023-05-27T01:04:02;7.72;;;6.97;;
60582;SDS011;46415;47.536;19.066;2023-05-27T01:07:27;8.95;;;7.12;;
60582;SDS011;46415;47.536;19.066;2023-05-27T01:10:42;8.73;;;7.82;;
60582;SDS011;46415;47.536;19.066;2023-05-27T01:13:59;9.57;;;7.62;;
60582;SDS011;46415;47.536;19.066;2023-05-27T01:17:06;7.40;;;6.70;;
60582;SDS011;46415;47.536;19.066;2023-05-27T01:20:09;7.28;;;6.57;;
60582;SDS011;46415;47.536;19.066;2023-05-27T01:23:13;10.57;;;8.20;;
60582;SDS011;46415;47.536;19.066;2023-05-27T01:26:16;9.45;;;7.40;;
60582;SDS011;46415;47.536;19.066;2023-05-27T01:29:19;8.30;;;7.50;;
60582;SDS011;46415;47.536;19.066;2023-05-27T01:35:52;9.15;;;7.78;;
60582;SDS011;46415;47.536;19.066;2023-05-27T01:38:57;8.07;;;6.75;;
60582;SDS011;46415;47.536;19.066;2023-05-27T01:42:02;10.57;;;7.30;;
60582;SDS011;46415;47.536;19.066;2023-05-27T01:45:07;10.15;;;7.15;;
60582;SDS011;46415;47.536;19.066;2023-05-27T01:48:11;8.23;;;7.43;;
60582;SDS011;46415;47.536;19.066;2023-05-27T01:51:14;8.77;;;7.90;;
60582;SDS011;46415;47.536;19.066;2023-05-27T01:54:18;8.77;;;7.40;;
60582;SDS011;46415;47.536;19.066;2023-05-27T01:57:21;10.07;;;7.87;;
60582;SDS011;46415;47.536;19.066;2023-05-27T02:00:24;8.18;;;7.20;;
60582;SDS011;46415;47.536;19.066;2023-05-27T02:03:27;10.02;;;7.90;;
60582;SDS011;46415;47.536;19.066;2023-05-27T02:06:30;8.77;;;7.85;;
60582;SDS011;46415;47.536;19.066;2023-05-27T02:09:32;8.07;;;7.28;;
60582;SDS011;46415;47.536;19.066;2023-05-27T02:12:35;9.43;;;8.05;;
60582;SDS011;46415;47.536;19.066;2023-05-27T02:15:38;8.65;;;7.70;;
60582;SDS011;46415;47.536;19.066;2023-05-27T02:18:41;8.52;;;7.40;;
60582;SDS011;46415;47.536;19.066;2023-05-27T02:21:44;8.73;;;7.75;;
60582;SDS011;46415;47.536;19.066;2023-05-27T02:24:47;8.65;;;7.85;;
60582;SDS011;46415;47.536;19.066;2023-05-27T02:27:49;8.18;;;7.37;;
60582;SDS011;46415;47.536;19.066;2023-05-27T02:30:55;8.65;;;7.78;;
60582;SDS011;46415;47.536;19.066;2023-05-27T02:33:58;8.65;;;7.47;;
60582;SDS011;46415;47.536;19.066;2023-05-27T02:37:02;9.80;;;8.40;;
60582;SDS011;46415;47.536;19.066;2023-05-27T02:40:05;9.20;;;7.55;;
60582;SDS011;46415;47.536;19.066;2023-05-27T02:43:11;9.77;;;8.20;;
60582;SDS011;46415;47.536;19.066;2023-05-27T02:46:13;7.95;;;7.15;;
60582;SDS011;46415;47.536;19.066;2023-05-27T02:49:17;8.80;;;7.90;;
60582;SDS011;46415;47.536;19.066;2023-05-27T02:52:20;9.20;;;8.23;;
60582;SDS011;46415;47.536;19.066;2023-05-27T02:55:24;10.15;;;8.48;;
60582;SDS011;46415;47.536;19.066;2023-05-27T02:58:26;9.43;;;8.32;;
60582;SDS011;46415;47.536;19.066;2023-05-27T03:01:29;8.25;;;7.45;;
60582;SDS011;46415;47.536;19.066;2023-05-27T03:04:32;9.48;;;8.18;;
60582;SDS011;46415;47.536;19.066;2023-05-27T03:07:35;8.35;;;7.22;;
60582;SDS011;46415;47.536;19.066;2023-05-27T03:10:38;8.48;;;7.68;;
60582;SDS011;46415;47.536;19.066;2023-05-27T03:13:42;10.27;;;7.57;;
60582;SDS011;46415;47.536;19.066;2023-05-27T03:16:45;8.88;;;7.87;;
60582;SDS011;46415;47.536;19.066;2023-05-27T03:19:48;11.20;;;7.82;;
60582;SDS011;46415;47.536;19.066;2023-05-27T03:22:51;9.02;;;7.60;;
60582;SDS011;46415;47.536;19.066;2023-05-27T03:25:54;10.02;;;7.75;;
60582;SDS011;46415;47.536;19.066;2023-05-27T03:28:57;8.43;;;7.60;;
60582;SDS011;46415;47.536;19.066;2023-05-27T03:32:00;8.60;;;7.70;;
60582;SDS011;46415;47.536;19.066;2023-05-27T03:35:03;9.93;;;7.28;;
60582;SDS011;46415;47.536;19.066;2023-05-27T03:38:06;10.80;;;7.87;;
60582;SDS011;46415;47.536;19.066;2023-05-27T03:41:09;9.57;;;7.30;;
60582;SDS011;46415;47.536;19.066;2023-05-27T03:44:12;8.55;;;7.62;;
60582;SDS011;46415;47.536;19.066;2023-05-27T03:47:15;8.68;;;7.37;;
60582;SDS011;46415;47.536;19.066;2023-05-27T03:50:23;10.93;;;7.20;;
60582;SDS011;46415;47.536;19.066;2023-05-27T03:53:26;8.40;;;6.97;;
60582;SDS011;46415;47.536;19.066;2023-05-27T03:56:29;10.20;;;7.72;;
60582;SDS011;46415;47.536;19.066;2023-05-27T03:59:31;9.40;;;7.43;;
60582;SDS011;46415;47.536;19.066;2023-05-27T04:02:34;8.20;;;7.37;;
60582;SDS011;46415;47.536;19.066;2023-05-27T04:05:38;8.20;;;7.25;;
60582;SDS011;46415;47.536;19.066;2023-05-27T04:08:41;8.10;;;7.22;;
60582;SDS011;46415;47.536;19.066;2023-05-27T04:11:44;8.45;;;6.82;;
60582;SDS011;46415;47.536;19.066;2023-05-27T04:14:47;9.70;;;7.20;;
60582;SDS011;46415;47.536;19.066;2023-05-27T04:17:50;9.38;;;8.05;;
60582;SDS011;46415;47.536;19.066;2023-05-27T04:20:53;12.15;;;6.87;;
60582;SDS011;46415;47.536;19.066;2023-05-27T04:23:56;8.30;;;7.50;;
60582;SDS011;46415;47.536;19.066;2023-05-27T04:26:59;8.13;;;6.75;;
60582;SDS011;46415;47.536;19.066;2023-05-27T04:30:03;7.62;;;6.80;;
60582;SDS011;46415;47.536;19.066;2023-05-27T04:33:10;8.00;;;6.87;;
60582;SDS011;46415;47.536;19.066;2023-05-27T04:36:14;11.85;;;6.97;;
60582;SDS011;46415;47.536;19.066;2023-05-27T04:39:22;11.27;;;7.00;;
60582;SDS011;46415;47.536;19.066;2023-05-27T04:42:25;10.00;;;7.05;;
60582;SDS011;46415;47.536;19.066;2023-05-27T04:45:29;9.82;;;6.53;;
60582;SDS011;46415;47.536;19.066;2023-05-27T04:48:32;6.65;;;6.05;;
60582;SDS011;46415;47.536;19.066;2023-05-27T04:51:37;6.97;;;6.28;;
60582;SDS011;46415;47.536;19.066;2023-05-27T04:54:40;8.93;;;6.57;;
60582;SDS011;46415;47.536;19.066;2023-05-27T04:57:45;8.35;;;6.62;;
60582;SDS011;46415;47.536;19.066;2023-05-27T05:00:48;9.38;;;7.00;;
60582;SDS011;46415;47.536;19.066;2023-05-27T05:03:56;8.95;;;6.78;;
60582;SDS011;46415;47.536;19.066;2023-05-27T05:07:16;7.97;;;6.80;;
60582;SDS011;46415;47.536;19.066;2023-05-27T05:10:22;10.25;;;6.37;;
60582;SDS011;46415;47.536;19.066;2023-05-27T05:13:25;6.87;;;5.90;;
60582;SDS011;46415;47.536;19.066;2023-05-27T05:16:31;9.45;;;6.40;;
60582;SDS011;46415;47.536;19.066;2023-05-27T05:19:34;7.65;;;6.20;;
60582;SDS011;46415;47.536;19.066;2023-05-27T05:22:37;6.75;;;5.55;;
60582;SDS011;46415;47.536;19.066;2023-05-27T05:25:40;7.25;;;5.65;;
60582;SDS011;46415;47.536;19.066;2023-05-27T05:28:43;9.10;;;5.25;;
60582;SDS011;46415;47.536;19.066;2023-05-27T05:31:46;7.90;;;5.75;;
60582;SDS011;46415;47.536;19.066;2023-05-27T05:34:49;7.90;;;6.07;;
60582;SDS011;46415;47.536;19.066;2023-05-27T05:37:53;9.18;;;5.60;;
60582;SDS011;46415;47.536;19.066;2023-05-27T05:40:56;7.15;;;5.47;;
60582;SDS011;46415;47.536;19.066;2023-05-27T05:43:59;7.10;;;5.75;;
60582;SDS011;46415;47.536;19.066;2023-05-27T05:47:02;7.40;;;5.72;;
60582;SDS011;46415;47.536;19.066;2023-05-27T05:50:05;6.68;;;5.55;;
60582;SDS011;46415;47.536;19.066;2023-05-27T05:53:09;8.10;;;5.95;;
60582;SDS011;46415;47.536;19.066;2023-05-27T05:56:13;7.22;;;5.53;;
60582;SDS011;46415;47.536;19.066;2023-05-27T05:59:15;6.55;;;5.00;;
60582;SDS011;46415;47.536;19.066;2023-05-27T06:02:18;6.95;;;5.20;;
60582;SDS011;46415;47.536;19.066;2023-05-27T06:05:22;6.10;;;5.07;;
60582;SDS011;46415;47.536;19.066;2023-05-27T06:08:26;7.32;;;5.00;;
60582;SDS011;46415;47.536;19.066;2023-05-27T06:11:30;8.40;;;5.62;;
60582;SDS011;46415;47.536;19.066;2023-05-27T06:14:33;6.18;;;5.25;;
60582;SDS011;46415;47.536;19.066;2023-05-27T06:17:36;7.00;;;5.20;;
60582;SDS011;46415;47.536;19.066;2023-05-27T06:20:39;9.30;;;4.87;;
60582;SDS011;46415;47.536;19.066;2023-05-27T06:23:43;8.10;;;5.15;;
60582;SDS011;46415;47.536;19.066;2023-05-27T06:26:45;6.30;;;4.30;;
60582;SDS011;46415;47.536;19.066;2023-05-27T06:29:48;6.05;;;4.60;;
60582;SDS011;46415;47.536;19.066;2023-05-27T06:32:51;6.45;;;4.95;;
60582;SDS011;46415;47.536;19.066;2023-05-27T06:35:54;5.22;;;4.60;;
60582;SDS011;46415;47.536;19.066;2023-05-27T06:38:57;5.85;;;4.53;;
60582;SDS011;46415;47.536;19.066;2023-05-27T06:42:01;6.87;;;4.85;;
60582;SDS011;46415;47.536;19.066;2023-05-27T06:45:07;7.60;;;5.00;;
60582;SDS011;46415;47.536;19.066;2023-05-27T06:48:10;4.82;;;4.28;;
60582;SDS011;46415;47.536;19.066;2023-05-27T06:51:13;6.22;;;4.30;;
60582;SDS011;46415;47.536;19.066;2023-05-27T06:54:17;7.22;;;4.70;;
60582;SDS011;46415;47.536;19.066;2023-05-27T06:57:19;5.93;;;4.57;;
60582;SDS011;46415;47.536;19.066;2023-05-27T07:00:23;5.37;;;4.28;;
60582;SDS011;46415;47.536;19.066;2023-05-27T07:03:28;6.18;;;4.22;;
60582;SDS011;46415;47.536;19.066;2023-05-27T07:06:31;9.73;;;4.93;;
60582;SDS011;46415;47.536;19.066;2023-05-27T07:09:34;6.55;;;4.12;;
60582;SDS011;46415;47.536;19.066;2023-05-27T07:12:37;5.57;;;4.12;;
60582;SDS011;46415;47.536;19.066;2023-05-27T07:15:40;6.00;;;4.25;;
60582;SDS011;46415;47.536;19.066;2023-05-27T07:18:43;8.63;;;4.57;;
60582;SDS011;46415;47.536;19.066;2023-05-27T07:21:46;5.40;;;4.10;;
60582;SDS011;46415;47.536;19.066;2023-05-27T07:24:49;8.52;;;4.75;;
60582;SDS011;46415;47.536;19.066;2023-05-27T07:27:52;6.43;;;3.95;;
60582;SDS011;46415;47.536;19.066;2023-05-27T07:30:55;7.05;;;4.20;;
60582;SDS011;46415;47.536;19.066;2023-05-27T07:33:58;5.37;;;3.80;;
60582;SDS011;46415;47.536;19.066;2023-05-27T07:37:01;4.55;;;3.62;;
60582;SDS011;46415;47.536;19.066;2023-05-27T07:40:04;7.68;;;3.60;;
60582;SDS011;46415;47.536;19.066;2023-05-27T07:43:08;5.22;;;3.70;;
60582;SDS011;46415;47.536;19.066;2023-05-27T07:46:11;5.40;;;3.90;;
60582;SDS011;46415;47.536;19.066;2023-05-27T07:49:14;5.80;;;3.75;;
60582;SDS011;46415;47.536;19.066;2023-05-27T07:52:21;7.12;;;3.72;;
60582;SDS011;46415;47.536;19.066;2023-05-27T07:55:24;5.35;;;3.33;;
60582;SDS011;46415;47.536;19.066;2023-05-27T07:58:27;6.97;;;3.80;;
60582;SDS011;46415;47.536;19.066;2023-05-27T08:01:32;9.65;;;3.90;;
60582;SDS011;46415;47.536;19.066;2023-05-27T08:04:36;10.90;;;3.90;;
60582;SDS011;46415;47.536;19.066;2023-05-27T08:07:39;6.22;;;3.92;;
60582;SDS011;46415;47.536;19.066;2023-05-27T08:10:42;5.60;;;3.90;;
60582;SDS011;46415;47.536;19.066;2023-05-27T08:13:48;4.70;;;3.80;;
60582;SDS011;46415;47.536;19.066;2023-05-27T08:16:51;7.60;;;3.50;;
60582;SDS011;46415;47.536;19.066;2023-05-27T08:19:54;8.07;;;4.18;;
60582;SDS011;46415;47.536;19.066;2023-05-27T08:22:57;5.40;;;3.37;;
60582;SDS011;46415;47.536;19.066;2023-05-27T08:26:04;5.53;;;3.70;;
60582;SDS011;46415;47.536;19.066;2023-05-27T08:29:07;8.43;;;4.00;;
60582;SDS011;46415;47.536;19.066;2023-05-27T08:32:10;6.22;;;4.05;;
60582;SDS011;46415;47.536;19.066;2023-05-27T08:35:13;4.87;;;3.72;;
60582;SDS011;46415;47.536;19.066;2023-05-27T08:38:16;5.68;;;4.10;;
60582;SDS011;46415;47.536;19.066;2023-05-27T08:41:19;6.07;;;3.92;;
60582;SDS011;46415;47.536;19.066;2023-05-27T08:44:24;4.90;;;4.00;;
60582;SDS011;46415;47.536;19.066;2023-05-27T08:47:29;7.37;;;4.22;;
60582;SDS011;46415;47.536;19.066;2023-05-27T08:50:36;5.72;;;3.67;;
60582;SDS011;46415;47.536;19.066;2023-05-27T08:53:39;6.62;;;4.07;;
60582;SDS011;46415;47.536;19.066;2023-05-27T08:56:43;4.95;;;4.15;;
60582;SDS011;46415;47.536;19.066;2023-05-27T08:59:48;7.50;;;4.40;;
60582;SDS011;46415;47.536;19.066;2023-05-27T09:02:50;5.78;;;4.18;;
60582;SDS011;46415;47.536;19.066;2023-05-27T09:05:54;6.70;;;3.47;;
60582;SDS011;46415;47.536;19.066;2023-05-27T09:08:58;4.87;;;3.47;;
60582;SDS011;46415;47.536;19.066;2023-05-27T09:12:01;5.95;;;3.62;;
60582;SDS011;46415;47.536;19.066;2023-05-27T09:15:05;5.97;;;3.87;;
60582;SDS011;46415;47.536;19.066;2023-05-27T09:18:08;5.10;;;3.75;;
60582;SDS011;46415;47.536;19.066;2023-05-27T09:21:13;5.30;;;3.85;;
60582;SDS011;46415;47.536;19.066;2023-05-27T09:24:16;6.15;;;3.80;;
60582;SDS011;46415;47.536;19.066;2023-05-27T09:27:19;4.15;;;3.70;;
60582;SDS011;46415;47.536;19.066;2023-05-27T09:30:27;4.95;;;3.92;;
60582;SDS011;46415;47.536;19.066;2023-05-27T09:33:31;5.97;;;4.43;;
60582;SDS011;46415;47.536;19.066;2023-05-27T09:36:41;5.82;;;3.87;;
60582;SDS011;46415;47.536;19.066;2023-05-27T09:39:44;5.65;;;4.00;;
60582;SDS011;46415;47.536;19.066;2023-05-27T09:42:48;5.95;;;4.32;;
60582;SDS011;46415;47.536;19.066;2023-05-27T09:45:52;6.40;;;4.30;;
60582;SDS011;46415;47.536;19.066;2023-05-27T09:49:04;4.95;;;3.90;;
60582;SDS011;46415;47.536;19.066;2023-05-27T09:52:07;8.02;;;4.30;;
60582;SDS011;46415;47.536;19.066;2023-05-27T09:55:13;5.45;;;4.10;;
60582;SDS011;46415;47.536;19.066;2023-05-27T09:58:17;4.72;;;4.07;;
60582;SDS011;46415;47.536;19.066;2023-05-27T10:01:21;5.03;;;3.80;;
60582;SDS011;46415;47.536;19.066;2023-05-27T10:04:26;6.68;;;4.10;;
60582;SDS011;46415;47.536;19.066;2023-05-27T10:07:30;6.47;;;4.00;;
60582;SDS011;46415;47.536;19.066;2023-05-27T10:10:40;7.30;;;3.97;;
60582;SDS011;46415;47.536;19.066;2023-05-27T10:13:43;4.90;;;3.67;;
60582;SDS011;46415;47.536;19.066;2023-05-27T10:16:51;8.02;;;4.03;;
60582;SDS011;46415;47.536;19.066;2023-05-27T10:19:56;6.62;;;4.50;;
60582;SDS011;46415;47.536;19.066;2023-05-27T10:23:15;7.87;;;3.83;;
60582;SDS011;46415;47.536;19.066;2023-05-27T10:26:20;5.93;;;4.07;;
60582;SDS011;46415;47.536;19.066;2023-05-27T10:29:35;4.55;;;3.92;;
60582;SDS011;46415;47.536;19.066;2023-05-27T10:32:43;7.12;;;3.92;;
60582;SDS011;46415;47.536;19.066;2023-05-27T10:35:50;6.55;;;4.25;;
60582;SDS011;46415;47.536;19.066;2023-05-27T10:38:57;6.22;;;4.20;;
60582;SDS011;46415;47.536;19.066;2023-05-27T10:42:01;5.75;;;4.05;;
60582;SDS011;46415;47.536;19.066;2023-05-27T10:45:05;6.53;;;3.97;;
60582;SDS011;46415;47.536;19.066;2023-05-27T10:48:19;7.57;;;4.22;;
60582;SDS011;46415;47.536;19.066;2023-05-27T10:51:31;5.20;;;4.28;;
60582;SDS011;46415;47.536;19.066;2023-05-27T10:54:34;5.55;;;4.35;;
60582;SDS011;46415;47.536;19.066;2023-05-27T10:57:38;6.03;;;4.40;;
60582;SDS011;46415;47.536;19.066;2023-05-27T11:00:41;6.40;;;4.28;;
60582;SDS011;46415;47.536;19.066;2023-05-27T11:03:44;4.45;;;3.95;;
60582;SDS011;46415;47.536;19.066;2023-05-27T11:06:58;6.65;;;4.18;;
60582;SDS011;46415;47.536;19.066;2023-05-27T11:10:06;6.50;;;4.95;;
60582;SDS011;46415;47.536;19.066;2023-05-27T11:13:10;5.87;;;4.50;;
60582;SDS011;46415;47.536;19.066;2023-05-27T11:16:13;6.15;;;4.05;;
60582;SDS011;46415;47.536;19.066;2023-05-27T11:19:17;5.25;;;4.18;;
60582;SDS011;46415;47.536;19.066;2023-05-27T11:22:21;5.28;;;4.28;;
60582;SDS011;46415;47.536;19.066;2023-05-27T11:25:24;6.43;;;4.20;;
60582;SDS011;46415;47.536;19.066;2023-05-27T11:28:27;4.62;;;4.22;;
60582;SDS011;46415;47.536;19.066;2023-05-27T11:31:30;5.05;;;4.22;;
60582;SDS011;46415;47.536;19.066;2023-05-27T11:34:34;6.47;;;4.43;;
60582;SDS011;46415;47.536;19.066;2023-05-27T11:37:38;5.32;;;4.03;;
60582;SDS011;46415;47.536;19.066;2023-05-27T11:40:40;5.28;;;4.32;;
60582;SDS011;46415;47.536;19.066;2023-05-27T11:43:55;5.78;;;4.35;;
60582;SDS011;46415;47.536;19.066;2023-05-27T11:47:07;7.95;;;4.47;;
60582;SDS011;46415;47.536;19.066;2023-05-27T11:50:10;6.07;;;4.80;;
60582;SDS011;46415;47.536;19.066;2023-05-27T11:53:13;5.85;;;4.70;;
60582;SDS011;46415;47.536;19.066;2023-05-27T11:56:18;5.97;;;4.00;;
60582;SDS011;46415;47.536;19.066;2023-05-27T11:59:21;9.00;;;4.75;;
60582;SDS011;46415;47.536;19.066;2023-05-27T12:02:26;5.82;;;4.40;;
60582;SDS011;46415;47.536;19.066;2023-05-27T12:05:29;5.30;;;4.25;;
60582;SDS011;46415;47.536;19.066;2023-05-27T12:08:36;4.93;;;4.43;;
60582;SDS011;46415;47.536;19.066;2023-05-27T12:11:40;6.07;;;5.03;;
60582;SDS011;46415;47.536;19.066;2023-05-27T12:14:43;5.80;;;4.75;;
60582;SDS011;46415;47.536;19.066;2023-05-27T12:17:46;7.20;;;4.85;;
60582;SDS011;46415;47.536;19.066;2023-05-27T12:20:49;9.13;;;4.80;;
60582;SDS011;46415;47.536;19.066;2023-05-27T12:23:52;4.50;;;4.03;;
60582;SDS011;46415;47.536;19.066;2023-05-27T12:26:55;5.57;;;3.97;;
60582;SDS011;46415;47.536;19.066;2023-05-27T12:29:57;4.95;;;4.30;;
60582;SDS011;46415;47.536;19.066;2023-05-27T12:33:01;6.55;;;4.62;;
60582;SDS011;46415;47.536;19.066;2023-05-27T12:36:04;5.35;;;4.53;;
60582;SDS011;46415;47.536;19.066;2023-05-27T12:39:07;5.50;;;4.18;;
60582;SDS011;46415;47.536;19.066;2023-05-27T12:42:10;4.82;;;4.30;;
60582;SDS011;46415;47.536;19.066;2023-05-27T12:45:13;6.03;;;4.62;;
60582;SDS011;46415;47.536;19.066;2023-05-27T12:48:16;7.53;;;4.37;;
60582;SDS011;46415;47.536;19.066;2023-05-27T12:51:19;7.28;;;5.12;;
60582;SDS011;46415;47.536;19.066;2023-05-27T12:54:22;8.10;;;4.40;;
60582;SDS011;46415;47.536;19.066;2023-05-27T12:57:26;7.50;;;4.57;;
60582;SDS011;46415;47.536;19.066;2023-05-27T13:00:29;6.00;;;5.40;;
60582;SDS011;46415;47.536;19.066;2023-05-27T13:03:33;6.80;;;5.55;;
60582;SDS011;46415;47.536;19.066;2023-05-27T13:06:36;6.10;;;4.85;;
60582;SDS011;46415;47.536;19.066;2023-05-27T13:09:39;7.62;;;4.70;;
60582;SDS011;46415;47.536;19.066;2023-05-27T13:12:42;7.55;;;5.05;;
60582;SDS011;46415;47.536;19.066;2023-05-27T13:15:45;7.90;;;5.37;;
60582;SDS011;46415;47.536;19.066;2023-05-27T13:18:49;6.65;;;4.95;;
60582;SDS011;46415;47.536;19.066;2023-05-27T13:21:51;6.40;;;5.53;;
60582;SDS011;46415;47.536;19.066;2023-05-27T13:24:55;6.65;;;5.40;;
60582;SDS011;46415;47.536;19.066;2023-05-27T13:27:58;8.32;;;5.97;;
60582;SDS011;46415;47.536;19.066;2023-05-27T13:31:01;6.68;;;5.50;;
60582;SDS011;46415;47.536;19.066;2023-05-27T13:34:04;6.28;;;5.45;;
60582;SDS011;46415;47.536;19.066;2023-05-27T13:37:07;6.78;;;5.65;;
60582;SDS011;46415;47.536;19.066;2023-05-27T13:40:13;5.53;;;5.03;;
60582;SDS011;46415;47.536;19.066;2023-05-27T13:43:16;5.62;;;4.93;;
60582;SDS011;46415;47.536;19.066;2023-05-27T13:46:19;6.72;;;5.82;;
60582;SDS011;46415;47.536;19.066;2023-05-27T13:49:22;5.87;;;4.80;;
60582;SDS011;46415;47.536;19.066;2023-05-27T13:52:25;6.37;;;5.62;;
60582;SDS011;46415;47.536;19.066;2023-05-27T13:55:28;5.40;;;4.70;;
60582;SDS011;46415;47.536;19.066;2023-05-27T13:58:32;5.05;;;4.55;;
60582;SDS011;46415;47.536;19.066;2023-05-27T14:01:37;5.85;;;5.30;;
60582;SDS011;46415;47.536;19.066;2023-05-27T14:04:44;6.15;;;5.50;;
60582;SDS011;46415;47.536;19.066;2023-05-27T14:07:47;8.15;;;5.53;;
60582;SDS011;46415;47.536;19.066;2023-05-27T14:10:50;6.12;;;5.15;;
60582;SDS011;46415;47.536;19.066;2023-05-27T14:13:52;6.22;;;5.32;;
60582;SDS011;46415;47.536;19.066;2023-05-27T14:16:58;6.00;;;5.40;;
60582;SDS011;46415;47.536;19.066;2023-05-27T14:20:02;7.03;;;5.62;;
60582;SDS011;46415;47.536;19.066;2023-05-27T14:23:09;7.03;;;5.57;;
60582;SDS011;46415;47.536;19.066;2023-05-27T14:26:14;7.03;;;5.60;;
60582;SDS011;46415;47.536;19.066;2023-05-27T14:29:18;6.15;;;5.47;;
60582;SDS011;46415;47.536;19.066;2023-05-27T14:32:20;7.37;;;5.87;;
60582;SDS011;46415;47.536;19.066;2023-05-27T14:35:23;6.90;;;5.78;;
60582;SDS011;46415;47.536;19.066;2023-05-27T14:38:25;6.75;;;5.40;;
60582;SDS011;46415;47.536;19.066;2023-05-27T14:41:28;6.32;;;5.70;;
60582;SDS011;46415;47.536;19.066;2023-05-27T14:44:33;6.93;;;5.78;;
60582;SDS011;46415;47.536;19.066;2023-05-27T14:47:38;7.05;;;5.57;;
60582;SDS011;46415;47.536;19.066;2023-05-27T14:50:41;5.78;;;5.15;;
60582;SDS011;46415;47.536;19.066;2023-05-27T14:53:44;5.47;;;4.85;;
60582;SDS011;46415;47.536;19.066;2023-05-27T14:56:46;5.47;;;4.93;;
60582;SDS011;46415;47.536;19.066;2023-05-27T14:59:50;6.37;;;5.40;;
60582;SDS011;46415;47.536;19.066;2023-05-27T15:02:52;5.32;;;4.82;;
60582;SDS011;46415;47.536;19.066;2023-05-27T15:05:55;7.12;;;5.30;;
60582;SDS011;46415;47.536;19.066;2023-05-27T15:09:01;6.50;;;5.53;;
60582;SDS011;46415;47.536;19.066;2023-05-27T15:12:05;6.40;;;5.05;;
60582;SDS011;46415;47.536;19.066;2023-05-27T15:15:11;6.65;;;5.10;;
60582;SDS011;46415;47.536;19.066;2023-05-27T15:18:23;8.40;;;4.70;;
60582;SDS011;46415;47.536;19.066;2023-05-27T15:21:25;7.80;;;4.93;;
60582;SDS011;46415;47.536;19.066;2023-05-27T15:24:28;5.95;;;5.20;;
60582;SDS011;46415;47.536;19.066;2023-05-27T15:27:31;6.00;;;5.15;;
60582;SDS011;46415;47.536;19.066;2023-05-27T15:30:34;5.43;;;4.87;;
60582;SDS011;46415;47.536;19.066;2023-05-27T15:33:37;5.37;;;4.75;;
60582;SDS011;46415;47.536;19.066;2023-05-27T15:36:42;6.05;;;5.03;;
60582;SDS011;46415;47.536;19.066;2023-05-27T15:39:45;6.12;;;4.80;;
60582;SDS011;46415;47.536;19.066;2023-05-27T15:42:48;5.25;;;4.62;;
60582;SDS011;46415;47.536;19.066;2023-05-27T15:45:51;5.62;;;4.90;;
60582;SDS011;46415;47.536;19.066;2023-05-27T15:49:06;5.82;;;4.82;;
60582;SDS011;46415;47.536;19.066;2023-05-27T15:52:08;6.18;;;5.30;;
60582;SDS011;46415;47.536;19.066;2023-05-27T15:55:13;5.65;;;4.97;;
60582;SDS011;46415;47.536;19.066;2023-05-27T15:58:16;5.10;;;4.60;;
60582;SDS011;46415;47.536;19.066;2023-05-27T16:01:19;6.80;;;5.03;;
60582;SDS011;46415;47.536;19.066;2023-05-27T16:04:22;7.45;;;4.37;;
60582;SDS011;46415;47.536;19.066;2023-05-27T16:07:24;5.03;;;4.40;;
60582;SDS011;46415;47.536;19.066;2023-05-27T16:10:27;5.78;;;4.57;;
60582;SDS011;46415;47.536;19.066;2023-05-27T16:13:31;5.45;;;4.40;;
60582;SDS011;46415;47.536;19.066;2023-05-27T16:16:34;5.78;;;4.55;;
60582;SDS011;46415;47.536;19.066;2023-05-27T16:19:37;5.05;;;4.57;;
60582;SDS011;46415;47.536;19.066;2023-05-27T16:22:40;6.05;;;5.12;;
60582;SDS011;46415;47.536;19.066;2023-05-27T16:25:43;7.53;;;4.95;;
60582;SDS011;46415;47.536;19.066;2023-05-27T16:28:45;5.68;;;4.90;;
60582;SDS011;46415;47.536;19.066;2023-05-27T16:31:48;6.60;;;4.65;;
60582;SDS011;46415;47.536;19.066;2023-05-27T16:34:51;6.30;;;4.75;;
60582;SDS011;46415;47.536;19.066;2023-05-27T16:37:54;7.00;;;5.18;;
60582;SDS011;46415;47.536;19.066;2023-05-27T16:40:57;5.93;;;5.00;;
60582;SDS011;46415;47.536;19.066;2023-05-27T16:44:00;7.35;;;5.25;;
60582;SDS011;46415;47.536;19.066;2023-05-27T16:47:03;6.72;;;5.32;;
60582;SDS011;46415;47.536;19.066;2023-05-27T16:50:06;5.15;;;4.65;;
60582;SDS011;46415;47.536;19.066;2023-05-27T16:53:09;6.03;;;4.78;;
60582;SDS011;46415;47.536;19.066;2023-05-27T16:56:12;5.97;;;4.70;;
60582;SDS011;46415;47.536;19.066;2023-05-27T16:59:15;8.73;;;5.57;;
60582;SDS011;46415;47.536;19.066;2023-05-27T17:02:17;6.25;;;5.28;;
60582;SDS011;46415;47.536;19.066;2023-05-27T17:05:20;6.25;;;4.97;;
60582;SDS011;46415;47.536;19.066;2023-05-27T17:08:23;7.40;;;5.82;;
60582;SDS011;46415;47.536;19.066;2023-05-27T17:11:27;6.65;;;5.37;;
60582;SDS011;46415;47.536;19.066;2023-05-27T17:14:30;5.93;;;4.85;;
60582;SDS011;46415;47.536;19.066;2023-05-27T17:17:33;7.00;;;5.45;;
60582;SDS011;46415;47.536;19.066;2023-05-27T17:20:36;8.27;;;5.43;;
60582;SDS011;46415;47.536;19.066;2023-05-27T17:23:39;8.38;;;5.37;;
60582;SDS011;46415;47.536;19.066;2023-05-27T17:26:42;5.70;;;5.00;;
60582;SDS011;46415;47.536;19.066;2023-05-27T17:29:45;6.75;;;5.72;;
60582;SDS011;46415;47.536;19.066;2023-05-27T17:32:50;9.18;;;5.25;;
60582;SDS011;46415;47.536;19.066;2023-05-27T17:35:53;8.02;;;5.60;;
60582;SDS011;46415;47.536;19.066;2023-05-27T17:38:55;7.40;;;5.90;;
60582;SDS011;46415;47.536;19.066;2023-05-27T17:41:58;6.80;;;6.00;;
60582;SDS011;46415;47.536;19.066;2023-05-27T17:45:02;7.03;;;5.85;;
60582;SDS011;46415;47.536;19.066;2023-05-27T17:48:05;7.47;;;6.00;;
60582;SDS011;46415;47.536;19.066;2023-05-27T17:51:12;6.82;;;5.80;;
60582;SDS011;46415;47.536;19.066;2023-05-27T17:54:15;6.78;;;5.95;;
60582;SDS011;46415;47.536;19.066;2023-05-27T17:57:18;8.07;;;5.95;;
60582;SDS011;46415;47.536;19.066;2023-05-27T18:00:21;8.20;;;6.03;;
60582;SDS011;46415;47.536;19.066;2023-05-27T18:03:25;7.65;;;5.93;;
60582;SDS011;46415;47.536;19.066;2023-05-27T18:06:28;10.45;;;6.30;;
60582;SDS011;46415;47.536;19.066;2023-05-27T18:09:30;8.90;;;5.97;;
60582;SDS011;46415;47.536;19.066;2023-05-27T18:12:33;9.82;;;5.97;;
60582;SDS011;46415;47.536;19.066;2023-05-27T18:15:36;7.70;;;6.45;;